Time;durP1;ratioP1;P1;durP2;ratioP2;P2;SDS_P1;SDS_P2;PMS_P1;PMS_P2;Temp;Humidity;BMP_temperature;BMP_pressure;BME280_temperature;BME280_humidity;BME280_pressure;Samples;Min_cycle;Max_cycle;Signal;HPM_P1;HPM_P2
2022/08/26 00:00:37;;;;;;;0.65;0.65;;;27.20;50.50;;;;;;5108698;28;20122;-63
2022/08/26 00:03:04;;;;;;;1.38;0.10;;;27.20;50.70;;;;;;5108968;28;20053;-63
2022/08/26 00:05:32;;;;;;;1.15;0.10;;;27.10;50.60;;;;;;5108758;28;20050;-63
2022/08/26 00:07:59;;;;;;;2.25;0.10;;;27.10;50.70;;;;;;5108599;28;20132;-65
2022/08/26 00:10:27;;;;;;;1.55;1.25;;;27.10;50.80;;;;;;5106252;28;20452;-64
2022/08/26 00:12:54;;;;;;;2.20;0.10;;;27.10;50.90;;;;;;5108699;28;20507;-65
2022/08/26 00:15:22;;;;;;;0.90;0.10;;;27.10;51.00;;;;;;5107856;28;20080;-63
2022/08/26 00:17:50;;;;;;;0.57;0.38;;;27.10;51.00;;;;;;5108568;28;20839;-63
2022/08/26 00:20:19;;;;;;;3.30;0.10;;;27.00;51.10;;;;;;5090126;28;20073;-63
2022/08/26 00:22:48;;;;;;;1.65;0.20;;;27.00;51.20;;;;;;5108299;28;20104;-64
2022/08/26 00:25:16;;;;;;;0.20;0.20;;;27.00;51.30;;;;;;5100966;28;20416;-63
2022/08/26 00:27:44;;;;;;;0.75;0.73;;;27.00;51.30;;;;;;5082355;28;20048;-63
2022/08/26 00:30:14;;;;;;;1.75;0.10;;;27.00;51.40;;;;;;5078562;28;20055;-63
2022/08/26 00:32:41;;;;;;;0.63;0.32;;;27.00;51.40;;;;;;5090763;28;20098;-63
2022/08/26 00:35:10;;;;;;;1.95;0.55;;;26.90;51.40;;;;;;5087854;28;20044;-63
2022/08/26 00:37:37;;;;;;;4.22;0.50;;;26.90;51.50;;;;;;5087542;28;20044;-63
2022/08/26 00:40:07;;;;;;;0.88;0.20;;;26.90;51.50;;;;;;5087652;28;20044;-63
2022/08/26 00:42:34;;;;;;;0.57;0.10;;;26.90;51.60;;;;;;5088110;28;20127;-62
2022/08/26 00:45:01;;;;;;;0.10;0.10;;;26.90;51.50;;;;;;5088624;28;20039;-63
2022/08/26 00:47:34;;;;;;;0.20;0.10;;;26.90;51.60;;;;;;5097256;28;20850;-63
2022/08/26 00:50:06;;;;;;;2.13;0.00;;;26.90;51.80;;;;;;5102149;28;20035;-65
2022/08/26 00:52:33;;;;;;;0.82;0.10;;;26.90;51.80;;;;;;5088052;28;20135;-65
2022/08/26 00:55:05;;;;;;;0.55;0.10;;;26.90;51.80;;;;;;5087925;28;20039;-66
2022/08/26 00:57:35;;;;;;;0.30;0.10;;;26.90;51.90;;;;;;5100550;28;20036;-65
2022/08/26 01:00:08;;;;;;;0.10;0.10;;;26.90;52.50;;;;;;5107789;28;20576;-65
2022/08/26 01:02:35;;;;;;;0.28;0.20;;;26.90;51.90;;;;;;5107980;28;20052;-65
2022/08/26 01:05:05;;;;;;;0.10;0.10;;;26.90;51.90;;;;;;5099092;28;20036;-64
2022/08/26 01:07:34;;;;;;;1.42;0.17;;;26.90;52.00;;;;;;5107717;28;20040;-63
2022/08/26 01:10:04;;;;;;;0.90;0.10;;;26.90;51.90;;;;;;5105098;28;20047;-63
2022/08/26 01:12:37;;;;;;;1.95;0.20;;;26.90;52.00;;;;;;5087553;28;20798;-63
2022/08/26 01:15:06;;;;;;;1.17;0.10;;;26.90;52.00;;;;;;5087381;28;20040;-63
2022/08/26 01:17:33;;;;;;;3.30;0.20;;;26.80;51.90;;;;;;5087519;28;20044;-64
2022/08/26 01:20:06;;;;;;;1.27;0.10;;;26.80;51.90;;;;;;5087045;28;20105;-64
2022/08/26 01:22:45;;;;;;;0.47;0.10;;;26.80;52.00;;;;;;5087543;28;20117;-64
2022/08/26 01:25:13;;;;;;;2.28;0.32;;;26.80;52.10;;;;;;5087320;28;20032;-65
2022/08/26 01:27:41;;;;;;;0.43;0.30;;;26.70;52.10;;;;;;5087620;28;20032;-64
2022/08/26 01:30:10;;;;;;;0.75;0.75;;;26.70;52.10;;;;;;5099690;28;20047;-64
2022/08/26 01:32:38;;;;;;;1.75;0.17;;;26.70;52.20;;;;;;5087165;28;20048;-64
2022/08/26 01:35:07;;;;;;;1.58;0.40;;;26.70;52.20;;;;;;5087014;28;20127;-62
2022/08/26 01:37:38;;;;;;;1.40;0.20;;;26.70;52.30;;;;;;5087097;28;20500;-63
2022/08/26 01:40:09;;;;;;;0.77;0.10;;;26.60;52.30;;;;;;5087020;28;20148;-63
2022/08/26 01:42:36;;;;;;;0.40;0.20;;;26.60;52.40;;;;;;5088068;28;20059;-63
2022/08/26 01:45:09;;;;;;;0.90;0.30;;;26.60;52.40;;;;;;5090947;28;20407;-64
2022/08/26 01:47:38;;;;;;;5.40;0.30;;;26.60;52.50;;;;;;5105565;28;20118;-65
2022/08/26 01:50:10;;;;;;;0.90;0.77;;;26.60;52.60;;;;;;5103507;28;20558;-65
2022/08/26 01:52:42;;;;;;;1.25;0.35;;;26.60;52.60;;;;;;5091107;28;20610;-65
2022/08/26 01:55:12;;;;;;;1.50;0.43;;;26.50;52.60;;;;;;5091161;28;20135;-65
2022/08/26 01:57:39;;;;;;;2.75;0.85;;;26.50;52.70;;;;;;5091037;28;20044;-65
2022/08/26 02:00:09;;;;;;;1.85;0.70;;;26.50;52.70;;;;;;5090851;28;20127;-65
2022/08/26 02:02:39;;;;;;;1.20;0.77;;;26.50;52.80;;;;;;5091010;28;20066;-66
2022/08/26 02:05:10;;;;;;;1.08;0.45;;;26.50;52.80;;;;;;5090463;28;20044;-65
2022/08/26 02:07:39;;;;;;;2.42;0.57;;;26.40;52.80;;;;;;5090556;28;20425;-65
2022/08/26 02:10:07;;;;;;;0.70;0.55;;;26.40;52.80;;;;;;5090235;28;20428;-65
2022/08/26 02:12:34;;;;;;;1.35;0.70;;;26.40;52.90;;;;;;5090520;28;20605;-65
2022/08/26 02:15:05;;;;;;;1.60;0.40;;;26.40;53.00;;;;;;5101497;28;20488;-65
2022/08/26 02:17:37;;;;;;;1.70;0.82;;;26.40;53.00;;;;;;5110936;28;20047;-62
2022/08/26 02:20:05;;;;;;;2.42;0.45;;;26.40;53.10;;;;;;5092377;28;20040;-65
2022/08/26 02:22:33;;;;;;;0.60;0.60;;;26.40;53.10;;;;;;5110826;28;20487;-64
2022/08/26 02:25:09;;;;;;;6.53;0.93;;;26.30;53.10;;;;;;5111002;28;20140;-65
2022/08/26 02:27:36;;;;;;;1.00;0.55;;;26.40;53.30;;;;;;5110808;28;20036;-65
2022/08/26 02:30:09;;;;;;;0.75;0.73;;;26.30;53.40;;;;;;5110672;28;20043;-65
2022/08/26 02:32:37;;;;;;;1.20;1.10;;;26.30;53.30;;;;;;5110417;28;20523;-66
2022/08/26 02:35:04;;;;;;;2.40;0.65;;;26.30;53.30;;;;;;5110714;28;20054;-66
2022/08/26 02:37:32;;;;;;;1.75;1.00;;;26.20;53.20;;;;;;5110689;28;20040;-66
2022/08/26 02:40:01;;;;;;;1.05;0.60;;;26.30;53.40;;;;;;5089817;28;20043;-64
2022/08/26 02:42:28;;;;;;;1.50;1.30;;;26.30;53.40;;;;;;5093465;28;20643;-64
2022/08/26 02:44:55;;;;;;;1.63;1.05;;;26.20;53.40;;;;;;5098611;28;20052;-63
2022/08/26 02:47:22;;;;;;;2.40;0.90;;;26.20;53.40;;;;;;5089327;28;20044;-64
2022/08/26 02:49:49;;;;;;;4.10;2.05;;;26.20;53.50;;;;;;5090766;28;20504;-64
2022/08/26 02:52:16;;;;;;;1.55;1.30;;;26.20;53.50;;;;;;5090209;28;20048;-64
2022/08/26 02:54:43;;;;;;;1.73;0.93;;;26.20;53.50;;;;;;5072674;28;20071;-64
2022/08/26 02:57:12;;;;;;;1.92;0.88;;;26.20;53.60;;;;;;5089793;28;20068;-65
2022/08/26 02:59:39;;;;;;;3.63;1.20;;;26.20;53.60;;;;;;5089453;28;20538;-64
2022/08/26 03:02:07;;;;;;;1.65;1.05;;;26.20;53.70;;;;;;5099549;28;20050;-66
2022/08/26 03:04:34;;;;;;;5.72;1.58;;;26.10;53.60;;;;;;5104768;28;20446;-64
2022/08/26 03:07:01;;;;;;;4.10;1.40;;;26.10;53.60;;;;;;5089971;28;20040;-64
2022/08/26 03:09:28;;;;;;;1.30;1.20;;;26.10;53.70;;;;;;5089876;28;20044;-64
2022/08/26 03:11:56;;;;;;;3.08;1.23;;;26.10;53.70;;;;;;5089706;28;20618;-64
2022/08/26 03:14:25;;;;;;;1.58;1.48;;;26.10;53.80;;;;;;5089604;28;20051;-64
2022/08/26 03:16:53;;;;;;;2.60;1.38;;;26.10;53.80;;;;;;5088962;28;20139;-65
2022/08/26 03:19:21;;;;;;;3.33;1.88;;;26.10;53.90;;;;;;5089319;28;20078;-65
2022/08/26 03:21:49;;;;;;;2.55;2.15;;;26.10;54.00;;;;;;5089572;28;20187;-65
2022/08/26 03:24:16;;;;;;;4.07;2.33;;;26.10;54.00;;;;;;5089432;28;20044;-65
2022/08/26 03:26:44;;;;;;;2.25;1.92;;;26.00;53.90;;;;;;5089300;28;20048;-63
2022/08/26 03:31:58;;;;;;;2.05;1.67;;;26.00;54.00;;;;;;5088903;28;20048;-64
2022/08/26 03:34:25;;;;;;;2.60;2.35;;;26.00;54.10;;;;;;5089171;28;20055;-65
2022/08/26 03:36:52;;;;;;;3.00;2.45;;;26.00;54.70;;;;;;5089125;28;20040;-64
2022/08/26 03:39:19;;;;;;;2.25;1.77;;;26.00;54.20;;;;;;5089068;28;20036;-64
2022/08/26 03:41:46;;;;;;;2.45;2.25;;;26.00;54.20;;;;;;5088859;28;20051;-63
2022/08/26 03:44:13;;;;;;;2.50;2.03;;;26.00;54.20;;;;;;5075836;28;20505;-64
2022/08/26 03:46:41;;;;;;;1.63;1.52;;;26.00;54.30;;;;;;5108773;28;20043;-63
2022/08/26 03:49:09;;;;;;;3.05;2.72;;;25.90;54.30;;;;;;5092245;28;20110;-63
2022/08/26 03:51:39;;;;;;;2.97;2.30;;;26.00;54.40;;;;;;5068629;28;20313;-64
2022/08/26 03:54:07;;;;;;;2.17;2.00;;;25.90;54.40;;;;;;5102514;28;20043;-64
2022/08/26 03:56:34;;;;;;;2.95;2.45;;;25.90;54.50;;;;;;5109158;28;20100;-64
2022/08/26 03:59:01;;;;;;;5.28;2.00;;;25.90;54.50;;;;;;5109088;28;20040;-64
2022/08/26 04:01:29;;;;;;;4.43;3.35;;;25.90;54.60;;;;;;5108593;28;20067;-65
2022/08/26 04:04:00;;;;;;;3.05;2.33;;;25.90;55.20;;;;;;5108869;28;20047;-65
2022/08/26 04:06:31;;;;;;;2.17;1.77;;;25.90;54.60;;;;;;5108635;28;20043;-64
2022/08/26 04:09:00;;;;;;;4.47;2.15;;;25.90;54.70;;;;;;5108852;28;20119;-64
2022/08/26 04:11:30;;;;;;;3.33;2.35;;;25.90;54.70;;;;;;5094256;28;20109;-63
2022/08/26 04:13:59;;;;;;;5.05;2.40;;;25.80;54.70;;;;;;5088432;28;20040;-62
2022/08/26 04:16:28;;;;;;;2.90;2.70;;;25.80;54.70;;;;;;5088221;28;20048;-61
2022/08/26 04:18:56;;;;;;;2.92;2.65;;;25.80;54.80;;;;;;5095345;28;20039;-62
2022/08/26 04:21:23;;;;;;;2.95;2.67;;;25.80;54.80;;;;;;5108859;28;20051;-62
2022/08/26 04:23:52;;;;;;;3.55;3.13;;;25.80;55.50;;;;;;5108559;28;20112;-62
2022/08/26 04:26:21;;;;;;;7.90;3.08;;;25.80;55.00;;;;;;5090019;28;20035;-62
2022/08/26 04:28:48;;;;;;;3.30;3.00;;;25.80;55.00;;;;;;5108065;28;20446;-64
2022/08/26 04:31:17;;;;;;;3.97;3.47;;;25.70;55.00;;;;;;5108042;28;20373;-63
2022/08/26 04:33:46;;;;;;;3.05;2.85;;;25.70;55.00;;;;;;5108287;28;20140;-63
2022/08/26 04:36:14;;;;;;;5.88;3.28;;;25.70;55.00;;;;;;5105453;28;20040;-63
2022/08/26 04:38:41;;;;;;;3.25;2.70;;;25.70;55.00;;;;;;5108200;28;20161;-63
2022/08/26 04:41:11;;;;;;;2.97;2.75;;;25.70;55.10;;;;;;5096285;28;20040;-61
2022/08/26 04:43:38;;;;;;;4.93;3.38;;;25.70;55.10;;;;;;5087327;28;20089;-62
2022/08/26 04:46:06;;;;;;;3.58;3.28;;;25.70;55.20;;;;;;5087320;28;20059;-62
2022/08/26 04:48:34;;;;;;;3.72;3.42;;;25.70;55.20;;;;;;5087624;28;20134;-62
2022/08/26 04:51:01;;;;;;;4.22;3.83;;;25.70;55.20;;;;;;5087773;28;20048;-63
2022/08/26 04:53:29;;;;;;;4.32;3.58;;;25.70;55.20;;;;;;5087609;28;20424;-62
2022/08/26 04:55:56;;;;;;;3.88;3.22;;;25.70;55.20;;;;;;5090275;28;20040;-65
2022/08/26 04:58:25;;;;;;;5.82;3.58;;;25.70;55.30;;;;;;5107575;28;20160;-64
2022/08/26 05:00:55;;;;;;;6.90;4.15;;;25.70;55.30;;;;;;5089881;28;20059;-63
2022/08/26 05:03:24;;;;;;;4.93;4.07;;;25.70;55.30;;;;;;5087642;28;20112;-62
2022/08/26 05:05:51;;;;;;;5.10;3.50;;;25.60;55.30;;;;;;5087683;28;20044;-64
2022/08/26 05:08:21;;;;;;;5.57;3.35;;;25.60;55.30;;;;;;5087648;28;20055;-64
2022/08/26 05:10:51;;;;;;;5.00;4.20;;;25.60;55.40;;;;;;5087544;28;20169;-63
2022/08/26 05:13:19;;;;;;;5.25;3.70;;;25.60;56.00;;;;;;5098741;28;20151;-64
2022/08/26 05:15:49;;;;;;;4.72;3.28;;;25.60;55.40;;;;;;5101490;28;20062;-63
2022/08/26 05:18:18;;;;;;;8.10;4.20;;;25.60;55.50;;;;;;5066694;28;20076;-64
2022/08/26 05:20:48;;;;;;;4.68;3.45;;;25.60;55.50;;;;;;5067492;28;20044;-63
2022/08/26 05:23:16;;;;;;;9.82;3.58;;;25.60;55.60;;;;;;5067207;28;20044;-63
2022/08/26 05:25:45;;;;;;;5.78;4.13;;;25.60;55.60;;;;;;5073347;28;20101;-63
2022/08/26 05:28:15;;;;;;;8.73;4.38;;;25.60;55.60;;;;;;5087400;28;20036;-63
2022/08/26 05:30:42;;;;;;;6.80;3.95;;;25.60;55.60;;;;;;5092434;28;20101;-65
2022/08/26 05:33:11;;;;;;;6.28;5.00;;;25.60;55.60;;;;;;5087100;28;20044;-64
2022/08/26 05:35:38;;;;;;;5.32;4.82;;;25.60;55.70;;;;;;5086780;28;20040;-65
2022/08/26 05:38:07;;;;;;;7.93;4.97;;;25.50;55.60;;;;;;5086921;28;20071;-65
2022/08/26 05:40:36;;;;;;;5.30;4.75;;;25.60;55.70;;;;;;5090143;28;20121;-65
2022/08/26 05:43:09;;;;;;;5.00;4.45;;;25.60;55.70;;;;;;5094815;28;20419;-65
2022/08/26 05:45:37;;;;;;;5.90;4.35;;;25.60;55.60;;;;;;5094778;28;20610;-65
2022/08/26 05:48:07;;;;;;;4.95;4.20;;;25.50;55.60;;;;;;5086489;28;20036;-65
2022/08/26 05:50:38;;;;;;;8.05;4.90;;;25.50;55.70;;;;;;5084801;28;20504;-65
2022/08/26 05:53:06;;;;;;;7.22;4.78;;;25.50;55.70;;;;;;5086814;28;20040;-65
2022/08/26 05:55:33;;;;;;;7.60;4.28;;;25.50;55.70;;;;;;5068192;28;20139;-69
2022/08/26 05:58:01;;;;;;;8.02;5.65;;;25.50;55.90;;;;;;5086848;28;20040;-63
2022/08/26 06:00:28;;;;;;;4.95;4.07;;;25.50;55.80;;;;;;5086483;28;20051;-63
2022/08/26 06:02:55;;;;;;;6.45;5.30;;;25.50;55.80;;;;;;5086441;28;20044;-64
2022/08/26 06:05:22;;;;;;;9.63;5.20;;;25.60;55.80;;;;;;5086523;28;20036;-64
2022/08/26 06:10:36;;;;;;;7.90;5.03;;;25.50;55.70;;;;;;5083687;28;20484;-63
2022/08/26 06:13:04;;;;;;;6.43;5.30;;;25.50;55.80;;;;;;5086276;28;20059;-63
2022/08/26 06:15:31;;;;;;;8.95;6.72;;;25.50;56.40;;;;;;5086245;28;20406;-63
2022/08/26 06:17:58;;;;;;;7.18;4.90;;;25.50;55.80;;;;;;5086060;28;20023;-63
2022/08/26 06:20:25;;;;;;;8.80;6.03;;;25.50;55.80;;;;;;5086492;28;20040;-64
2022/08/26 06:25:38;;;;;;;5.47;4.95;;;25.50;55.80;;;;;;5098887;28;20089;-64
2022/08/26 06:28:06;;;;;;;11.57;6.25;;;25.50;55.70;;;;;;5087720;28;20047;-63
2022/08/26 06:30:37;;;;;;;9.80;5.68;;;25.50;55.70;;;;;;5089607;28;20036;-63
2022/08/26 06:33:05;;;;;;;10.73;5.60;;;25.40;55.70;;;;;;5089915;28;20040;-63
2022/08/26 06:35:37;;;;;;;14.57;5.30;;;25.30;55.70;;;;;;5090103;28;20055;-64
2022/08/26 06:38:06;;;;;;;7.03;4.63;;;25.30;56.50;;;;;;5090119;28;20508;-64
2022/08/26 06:40:35;;;;;;;6.93;5.10;;;25.30;55.90;;;;;;5089432;28;20098;-63
2022/08/26 06:43:02;;;;;;;10.70;5.25;;;25.20;55.70;;;;;;5090174;28;20040;-64
2022/08/26 06:45:29;;;;;;;12.63;5.47;;;25.20;56.30;;;;;;5089539;28;20070;-64
2022/08/26 06:47:56;;;;;;;6.30;4.10;;;25.20;55.70;;;;;;5089315;28;20090;-64
2022/08/26 06:50:23;;;;;;;6.13;4.72;;;25.20;55.70;;;;;;5096575;28;20039;-64
2022/08/26 06:52:51;;;;;;;8.15;4.50;;;25.20;55.70;;;;;;5110138;28;20122;-64
2022/08/26 06:55:20;;;;;;;7.35;3.47;;;25.10;55.70;;;;;;5106335;28;20047;-64
2022/08/26 06:57:47;;;;;;;5.88;3.72;;;25.20;55.70;;;;;;5095410;28;20943;-61
2022/08/26 07:00:15;;;;;;;6.97;3.72;;;25.10;55.60;;;;;;5089285;28;20120;-62
2022/08/26 07:02:42;;;;;;;4.97;3.65;;;25.10;56.20;;;;;;5088758;28;20811;-63
2022/08/26 07:05:10;;;;;;;5.35;3.40;;;25.10;55.50;;;;;;5089062;28;20071;-62
2022/08/26 07:07:37;;;;;;;5.38;4.32;;;25.10;55.50;;;;;;5089282;28;20149;-63
2022/08/26 07:10:05;;;;;;;10.55;2.40;;;25.10;55.50;;;;;;5085995;28;20131;-67
2022/08/26 07:12:34;;;;;;;4.47;2.35;;;25.10;55.70;;;;;;5088723;28;20359;-65
2022/08/26 07:15:02;;;;;;;3.95;2.60;;;25.10;55.80;;;;;;5095000;28;20035;-65
2022/08/26 07:17:29;;;;;;;4.72;2.58;;;25.20;55.70;;;;;;5092019;28;20048;-60
2022/08/26 07:19:56;;;;;;;3.85;2.42;;;25.30;55.60;;;;;;5089375;28;20070;-60
2022/08/26 07:22:23;;;;;;;3.13;2.20;;;25.40;55.40;;;;;;5089415;28;20043;-61
2022/08/26 07:24:50;;;;;;;5.65;3.05;;;25.50;55.20;;;;;;5088331;28;20040;-55
2022/08/26 07:27:17;;;;;;;2.88;2.55;;;25.60;55.00;;;;;;5086338;28;20063;-56
2022/08/26 07:29:46;;;;;;;3.90;2.47;;;25.70;54.80;;;;;;5088288;28;20047;-60
2022/08/26 07:32:14;;;;;;;2.78;2.53;;;25.80;54.70;;;;;;5089685;28;20516;-59
2022/08/26 07:34:42;;;;;;;2.88;1.92;;;25.90;54.60;;;;;;5089600;28;20039;-60
2022/08/26 07:37:09;;;;;;;2.28;2.00;;;26.00;54.60;;;;;;5089856;28;20066;-59
2022/08/26 07:39:36;;;;;;;1.38;1.33;;;26.00;54.40;;;;;;5089944;28;20054;-63
2022/08/26 07:42:05;;;;;;;1.40;1.33;;;26.20;54.30;;;;;;5089970;28;20115;-70
2022/08/26 07:44:33;;;;;;;1.13;1.10;;;26.30;54.10;;;;;;5093134;28;20040;-61
2022/08/26 07:47:01;;;;;;;2.33;1.95;;;26.40;53.80;;;;;;5054946;28;20044;-63
2022/08/26 07:49:28;;;;;;;3.85;1.95;;;26.50;53.50;;;;;;5088492;28;20044;-63
2022/08/26 07:51:56;;;;;;;2.80;1.58;;;26.70;53.30;;;;;;5088099;28;20046;-61
2022/08/26 07:54:23;;;;;;;1.67;0.82;;;26.80;53.10;;;;;;5090255;28;20063;-59
2022/08/26 07:56:50;;;;;;;2.72;0.88;;;26.90;52.80;;;;;;5089273;28;20032;-55
2022/08/26 07:59:19;;;;;;;1.48;0.90;;;27.10;52.50;;;;;;5088097;28;20071;-55
2022/08/26 08:01:46;;;;;;;2.70;1.13;;;27.20;52.20;;;;;;5088285;28;20519;-51
2022/08/26 08:04:16;;;;;;;1.92;1.17;;;27.40;51.90;;;;;;5087919;28;20040;-53
2022/08/26 08:06:45;;;;;;;2.22;1.38;;;27.50;51.30;;;;;;5088078;28;20051;-54
2022/08/26 08:09:13;;;;;;;2.60;1.90;;;27.70;51.10;;;;;;5088351;28;20040;-54
2022/08/26 08:11:41;;;;;;;2.72;1.23;;;27.80;50.70;;;;;;5088154;28;20040;-52
2022/08/26 08:14:08;;;;;;;3.05;1.02;;;27.90;50.30;;;;;;5087807;28;20466;-50
2022/08/26 08:16:36;;;;;;;1.52;1.08;;;28.10;50.10;;;;;;5084292;28;20052;-53
2022/08/26 08:19:03;;;;;;;2.67;1.75;;;28.20;49.80;;;;;;5087621;28;20070;-53
2022/08/26 08:21:31;;;;;;;5.35;1.17;;;28.30;49.60;;;;;;5087354;28;20129;-54
2022/08/26 08:23:59;;;;;;;3.90;1.17;;;28.50;49.30;;;;;;5069813;28;20413;-53
2022/08/26 08:26:27;;;;;;;1.88;0.93;;;28.50;48.90;;;;;;5088055;28;20129;-51
2022/08/26 08:28:58;;;;;;;3.28;0.93;;;28.70;48.60;;;;;;5087558;28;20054;-60
2022/08/26 08:31:26;;;;;;;2.67;0.85;;;28.80;48.40;;;;;;5087749;28;20128;-58
2022/08/26 08:33:53;;;;;;;1.00;0.82;;;29.00;48.20;;;;;;5086886;28;20043;-59
2022/08/26 08:36:21;;;;;;;0.57;0.47;;;29.00;47.80;;;;;;5087242;28;20048;-56
2022/08/26 08:38:50;;;;;;;0.90;0.90;;;29.10;48.20;;;;;;5088016;28;20415;-54
2022/08/26 08:41:31;;;;;;;2.90;0.47;;;29.30;47.50;;;;;;5092999;28;20128;-53
2022/08/26 08:44:01;;;;;;;1.95;0.93;;;29.40;47.10;;;;;;5087070;28;20059;-58
2022/08/26 08:46:30;;;;;;;3.80;0.75;;;29.50;46.70;;;;;;5090795;28;20051;-57
2022/08/26 08:48:59;;;;;;;0.60;0.43;;;29.60;46.40;;;;;;5089754;28;20059;-59
2022/08/26 08:51:38;;;;;;;2.13;0.32;;;29.70;46.20;;;;;;5091711;28;20044;-57
2022/08/26 08:54:08;;;;;;;0.60;0.60;;;29.80;45.60;;;;;;5086563;28;20044;-55
2022/08/26 08:56:38;;;;;;;0.75;0.30;;;30.00;45.50;;;;;;5087467;28;20040;-57
2022/08/26 08:59:14;;;;;;;0.93;0.80;;;30.10;45.10;;;;;;5086592;28;20028;-57
2022/08/26 09:01:57;;;;;;;1.15;0.63;;;30.30;44.80;;;;;;5086655;28;20109;-55
2022/08/26 09:04:51;;;;;;;3.13;0.28;;;30.30;44.50;;;;;;5089816;28;20055;-54
2022/08/26 09:07:20;;;;;;;2.75;0.70;;;30.50;44.30;;;;;;5073434;28;20488;-57
2022/08/26 09:09:52;;;;;;;1.42;1.20;;;30.50;44.00;;;;;;5087176;28;20063;-56
2022/08/26 09:12:23;;;;;;;2.40;0.70;;;30.60;43.90;;;;;;5087400;28;20097;-56
2022/08/26 09:14:51;;;;;;;4.57;1.98;;;30.60;43.70;;;;;;5087202;28;20140;-56
2022/08/26 09:17:28;;;;;;;1.70;0.68;;;30.70;43.60;;;;;;5099213;28;20050;-55
2022/08/26 09:20:06;;;;;;;3.28;0.98;;;30.80;43.60;;;;;;5086195;28;20147;-55
2022/08/26 09:22:36;;;;;;;4.00;0.55;;;30.80;43.30;;;;;;5089965;28;20032;-64
2022/08/26 09:25:08;;;;;;;1.70;0.70;;;30.90;43.20;;;;;;5086921;28;20040;-62
2022/08/26 09:27:42;;;;;;;1.10;0.45;;;31.00;43.00;;;;;;5087088;28;20040;-62
2022/08/26 09:30:13;;;;;;;2.83;0.57;;;31.10;42.80;;;;;;5086980;28;20072;-64
2022/08/26 09:32:40;;;;;;;3.50;0.55;;;31.30;42.70;;;;;;5086692;28;20040;-63
2022/08/26 09:35:23;;;;;;;8.05;1.55;;;31.40;42.40;;;;;;5086500;28;20062;-62
2022/08/26 09:37:50;;;;;;;4.85;0.40;;;31.40;42.20;;;;;;5084372;28;20085;-63
2022/08/26 09:40:28;;;;;;;2.67;0.40;;;31.50;42.00;;;;;;5087252;28;20043;-61
2022/08/26 09:43:18;;;;;;;6.85;0.80;;;31.70;41.80;;;;;;5085767;28;20036;-68
2022/08/26 09:45:47;;;;;;;4.10;0.35;;;31.80;41.40;;;;;;5085058;28;20135;-67
2022/08/26 09:48:26;;;;;;;2.30;0.52;;;31.90;41.30;;;;;;5085962;28;20031;-67
2022/08/26 09:50:55;;;;;;;4.07;0.30;;;31.90;40.90;;;;;;5085427;28;20076;-68
2022/08/26 09:53:25;;;;;;;0.75;0.57;;;31.80;41.00;;;;;;5082496;28;20047;-69
2022/08/26 09:56:12;;;;;;;1.75;0.40;;;31.80;40.80;;;;;;5088723;28;20043;-68
2022/08/26 09:58:41;;;;;;;0.30;0.30;;;31.80;40.80;;;;;;5084788;28;20036;-69
2022/08/26 10:01:16;;;;;;;4.00;0.70;;;31.60;40.90;;;;;;5086199;28;20051;-60
2022/08/26 10:03:43;;;;;;;0.90;0.80;;;31.60;41.00;;;;;;5086325;28;20085;-61
2022/08/26 10:06:25;;;;;;;4.78;0.75;;;31.60;41.20;;;;;;5089860;28;20040;-61
2022/08/26 10:08:55;;;;;;;0.82;0.60;;;31.50;41.10;;;;;;5092576;28;20151;-62
2022/08/26 10:11:31;;;;;;;2.05;0.30;;;31.40;41.20;;;;;;5095490;28;20123;-61
2022/08/26 10:14:03;;;;;;;2.10;0.57;;;31.40;41.40;;;;;;5096598;28;20036;-61
2022/08/26 10:16:35;;;;;;;1.38;0.40;;;31.40;41.50;;;;;;5091077;28;20869;-61
2022/08/26 10:19:08;;;;;;;2.10;0.50;;;31.40;41.50;;;;;;5089800;28;20476;-62
2022/08/26 10:21:38;;;;;;;1.20;0.50;;;31.30;41.60;;;;;;5088590;28;20048;-64
2022/08/26 10:24:08;;;;;;;2.65;0.60;;;31.30;41.60;;;;;;5090260;28;20494;-62
2022/08/26 10:26:42;;;;;;;2.30;0.50;;;31.30;41.40;;;;;;5090001;28;20494;-62
2022/08/26 10:29:14;;;;;;;0.75;0.20;;;31.30;41.30;;;;;;5090273;28;20465;-61
2022/08/26 10:31:48;;;;;;;0.85;0.30;;;31.30;41.30;;;;;;5092204;28;20044;-61
2022/08/26 10:34:16;;;;;;;1.08;0.60;;;31.30;41.30;;;;;;5090254;28;20044;-62
2022/08/26 10:36:52;;;;;;;3.45;0.45;;;31.20;41.20;;;;;;5089991;28;20032;-62
2022/08/26 10:39:26;;;;;;;0.90;0.63;;;31.20;41.20;;;;;;5094049;28;20052;-62
2022/08/26 10:41:59;;;;;;;2.72;0.68;;;31.20;41.30;;;;;;5090073;28;20482;-62
2022/08/26 10:44:28;;;;;;;1.27;0.30;;;31.20;41.50;;;;;;5089885;28;20135;-62
2022/08/26 10:47:01;;;;;;;3.22;0.38;;;31.20;41.50;;;;;;5090756;28;20686;-62
2022/08/26 10:49:28;;;;;;;1.98;0.38;;;31.20;41.40;;;;;;5100948;28;20538;-62
2022/08/26 10:52:02;;;;;;;2.22;0.45;;;31.20;41.30;;;;;;5090172;28;20524;-62
2022/08/26 10:54:38;;;;;;;1.15;0.43;;;31.20;41.10;;;;;;5094050;28;20450;-62
2022/08/26 10:57:13;;;;;;;0.30;0.20;;;31.20;41.10;;;;;;5074387;28;20071;-63
2022/08/26 10:59:54;;;;;;;2.28;0.80;;;31.20;41.10;;;;;;5089726;28;20056;-62
2022/08/26 11:02:39;;;;;;;0.73;0.35;;;31.30;41.10;;;;;;5084371;28;20130;-61
2022/08/26 11:05:15;;;;;;;1.60;0.40;;;31.30;41.10;;;;;;5074581;28;20093;-61
2022/08/26 11:07:45;;;;;;;1.20;0.20;;;31.30;41.20;;;;;;5084815;28;20044;-61
2022/08/26 11:10:53;;;;;;;0.40;0.40;;;31.30;41.10;;;;;;5089739;28;20040;-61
2022/08/26 11:13:58;;;;;;;0.65;0.60;;;31.30;40.80;;;;;;5087278;28;20048;-61
2022/08/26 11:16:42;;;;;;;0.70;0.30;;;31.40;40.50;;;;;;5088047;28;20115;-61
2022/08/26 11:19:11;;;;;;;4.47;0.32;;;31.40;40.30;;;;;;5079695;28;20043;-61
2022/08/26 11:21:47;;;;;;;1.83;0.22;;;31.40;40.20;;;;;;5088992;28;20047;-62
2022/08/26 11:24:29;;;;;;;;;;;31.40;40.20;;;;;;5091205;28;20040;-61
2022/08/26 11:26:55;;;;;;;0.85;0.85;;;31.40;40.40;;;;;;5075730;28;19970;-61
2022/08/26 11:29:58;;;;;;;4.88;0.50;;;31.50;40.50;;;;;;5098694;28;20036;-61
2022/08/26 11:32:44;;;;;;;3.83;0.20;;;31.60;40.30;;;;;;5099158;28;20101;-61
2022/08/26 11:35:33;;;;;;;0.10;0.10;;;31.60;39.80;;;;;;5077150;28;20150;-62
2022/08/26 11:38:02;;;;;;;0.88;0.10;;;31.60;39.20;;;;;;5088306;28;20044;-61
2022/08/26 11:40:32;;;;;;;0.40;0.20;;;31.70;39.10;;;;;;5091399;28;20044;-60
2022/08/26 11:43:05;;;;;;;0.30;0.30;;;31.80;39.00;;;;;;5078376;28;20039;-61
2022/08/26 11:45:37;;;;;;;0.20;0.17;;;31.80;38.80;;;;;;5088067;28;20055;-61
2022/08/26 11:48:15;;;;;;;1.02;0.13;;;31.80;38.80;;;;;;5088641;28;20097;-61
2022/08/26 11:50:53;;;;;;;0.45;0.40;;;31.90;38.90;;;;;;5088481;28;20059;-61
2022/08/26 11:53:21;;;;;;;0.93;0.10;;;32.00;38.90;;;;;;5088598;28;20611;-61
2022/08/26 11:55:51;;;;;;;0.47;0.22;;;32.00;39.00;;;;;;5088512;28;20085;-60
2022/08/26 11:58:20;;;;;;;0.20;0.20;;;32.00;38.90;;;;;;5088610;28;20044;-61
2022/08/26 12:00:52;;;;;;;0.20;0.20;;;32.10;38.80;;;;;;5088439;28;20040;-62
2022/08/26 12:03:23;;;;;;;0.25;0.10;;;32.10;38.70;;;;;;5088335;28;20032;-62
2022/08/26 12:05:52;;;;;;;0.88;0.15;;;32.10;38.70;;;;;;5085840;28;20512;-62
2022/08/26 12:08:23;;;;;;;0.35;0.30;;;32.20;38.50;;;;;;5088155;28;20042;-62
2022/08/26 12:11:01;;;;;;;0.38;0.20;;;32.20;38.40;;;;;;5088200;28;20143;-62
2022/08/26 12:13:28;;;;;;;0.30;0.30;;;32.30;38.90;;;;;;5087938;28;20496;-61
2022/08/26 12:15:58;;;;;;;1.95;0.17;;;32.30;38.00;;;;;;5086937;28;20040;-62
2022/08/26 12:18:29;;;;;;;0.75;0.20;;;32.30;37.80;;;;;;5087706;28;20040;-62
2022/08/26 12:20:59;;;;;;;0.73;0.30;;;32.30;37.60;;;;;;5087611;28;20085;-62
2022/08/26 12:23:37;;;;;;;2.03;0.20;;;32.40;37.50;;;;;;5084800;28;20139;-62
2022/08/26 12:26:08;;;;;;;1.58;0.75;;;32.40;37.60;;;;;;5087243;28;20155;-61
2022/08/26 12:28:42;;;;;;;0.45;0.30;;;32.40;37.50;;;;;;5068733;28;20575;-61
2022/08/26 12:31:10;;;;;;;2.50;0.10;;;32.50;37.50;;;;;;5087739;28;20524;-61
2022/08/26 12:33:38;;;;;;;0.65;0.20;;;32.50;37.40;;;;;;5087352;28;20123;-61
2022/08/26 12:36:06;;;;;;;0.93;0.75;;;32.50;37.30;;;;;;5089266;28;20048;-61
2022/08/26 12:38:36;;;;;;;0.70;0.15;;;32.60;36.90;;;;;;5087522;28;20097;-60
2022/08/26 12:41:03;;;;;;;1.52;0.10;;;32.60;36.40;;;;;;5084569;28;20651;-54
2022/08/26 12:43:40;;;;;;;0.60;0.47;;;32.60;36.00;;;;;;5087110;28;20055;-55
2022/08/26 12:46:11;;;;;;;4.15;0.22;;;32.60;36.10;;;;;;5085466;28;20052;-54
2022/08/26 12:48:42;;;;;;;8.20;0.82;;;32.70;36.30;;;;;;5084870;28;20115;-59
2022/08/26 12:51:21;;;;;;;3.53;0.30;;;32.80;36.20;;;;;;5083419;28;20090;-61
2022/08/26 12:53:48;;;;;;;2.00;0.20;;;33.00;36.00;;;;;;5086082;28;20140;-59
2022/08/26 12:56:25;;;;;;;7.82;0.68;;;33.10;35.80;;;;;;5091384;28;20035;-60
2022/08/26 12:59:20;;;;;;;1.60;0.13;;;33.30;35.70;;;;;;5087800;28;20067;-60
2022/08/26 13:01:49;;;;;;;0.20;0.10;;;33.50;35.60;;;;;;5088983;28;20123;-59
2022/08/26 13:04:39;;;;;;;1.38;0.30;;;33.60;35.30;;;;;;5095043;28;20052;-63
2022/08/26 13:07:20;;;;;;;0.47;0.10;;;33.70;35.10;;;;;;5094399;28;20040;-61
2022/08/26 13:09:48;;;;;;;1.10;0.20;;;33.80;34.80;;;;;;5095910;28;20207;-60
2022/08/26 13:12:24;;;;;;;1.67;0.30;;;34.00;34.70;;;;;;5087197;28;20036;-58